Time;durP1;ratioP1;P1;durP2;ratioP2;P2;SDS_P1;SDS_P2;PMS_P1;PMS_P2;Temp;Humidity;BMP_temperature;BMP_pressure;BME280_temperature;BME280_humidity;BME280_pressure;Samples;Min_cycle;Max_cycle;Signal;HPM_P1;HPM_P2
2023/07/12 03:08:49;;;;;;;8.87;5.07;;;16.50;99.90;;;;;;1848779;75;25261;-88
2023/07/12 04:55:09;;;;;;;12.87;4.00;;;16.10;99.90;;;;;;1924543;73;25256;-88
2023/07/12 05:02:42;;;;;;;8.23;4.30;;;16.10;99.90;;;;;;1917756;73;25217;-88
2023/07/12 05:39:34;;;;;;;8.77;4.10;;;16.50;99.90;;;;;;1903924;73;25298;-89
2023/07/12 05:45:30;;;;;;;6.13;3.33;;;16.60;99.90;;;;;;1980654;71;27168;-89
2023/07/12 05:48:22;;;;;;;5.20;3.50;;;16.60;99.90;;;;;;1915024;73;25705;-90
2023/07/12 05:51:35;;;;;;;6.20;4.00;;;16.60;99.90;;;;;;1900107;75;25280;-89
2023/07/12 05:54:26;;;;;;;9.23;3.93;;;16.70;99.90;;;;;;1889640;74;25212;-90
2023/07/12 05:57:19;;;;;;;8.43;4.10;;;16.60;99.90;;;;;;1895182;74;25701;-90
2023/07/12 06:04:08;;;;;;;8.60;4.20;;;16.60;99.90;;;;;;1980047;71;29858;-89
2023/07/12 06:06:58;;;;;;;6.93;3.53;;;16.70;99.90;;;;;;1955777;72;25265;-90
2023/07/12 06:09:49;;;;;;;7.57;3.63;;;16.60;99.90;;;;;;2000620;70;25300;-90
2023/07/12 06:12:59;;;;;;;6.17;3.93;;;16.60;99.90;;;;;;2032811;70;25174;-90
2023/07/12 06:19:12;;;;;;;7.90;3.63;;;16.60;99.90;;;;;;1949453;72;32563;-90
2023/07/12 06:22:15;;;;;;;5.50;3.90;;;16.60;99.90;;;;;;1916446;73;25238;-89
2023/07/12 06:25:20;;;;;;;6.20;3.60;;;16.60;99.90;;;;;;1916617;73;25299;-90
2023/07/12 06:28:40;;;;;;;4.17;3.30;;;16.70;99.90;;;;;;1924797;73;25249;-88
2023/07/12 06:42:34;;;;;;;5.33;3.33;;;16.80;99.90;;;;;;1901313;73;26371;-89
2023/07/12 06:45:48;;;;;;;6.30;3.47;;;16.90;99.90;;;;;;1904219;75;25274;-90
2023/07/12 06:51:58;;;;;;;4.83;2.50;;;16.90;99.90;;;;;;1946909;72;27892;-89
2023/07/12 06:55:16;;;;;;;5.50;2.80;;;16.90;99.90;;;;;;1945150;73;25843;-89
2023/07/12 06:58:39;;;;;;;7.37;2.60;;;16.80;99.90;;;;;;1937264;72;25612;-89
2023/07/12 07:01:32;;;;;;;3.87;2.50;;;16.70;99.90;;;;;;1945974;72;25253;-89
2023/07/12 07:31:24;;;;;;;8.47;3.33;;;15.80;99.90;;;;;;1836538;77;25388;-90
2023/07/12 07:38:59;;;;;;;6.40;3.30;;;15.70;99.90;;;;;;1834704;76;25264;-91
2023/07/12 08:40:13;;;;;;;6.83;3.17;;;15.70;99.90;;;;;;2007938;70;25271;-91
2023/07/12 12:52:20;;;;;;;8.67;5.40;;;16.20;99.90;;;;;;1837728;76;25301;-91
2023/07/12 14:43:06;;;;;;;8.90;4.60;;;15.80;99.90;;;;;;1895655;74;25382;-89
2023/07/12 15:33:53;;;;;;;10.57;5.60;;;15.60;99.90;;;;;;1854812;75;27385;-88
2023/07/12 15:39:37;;;;;;;7.63;5.33;;;16.00;99.90;;;;;;1947339;71;26923;-89
2023/07/12 15:42:28;;;;;;;8.50;5.63;;;16.00;99.90;;;;;;1937854;73;25740;-89
2023/07/12 15:45:19;;;;;;;14.17;6.37;;;16.00;99.90;;;;;;1924599;73;25825;-88
2023/07/12 15:51:32;;;;;;;10.03;6.73;;;16.00;99.90;;;;;;2023453;70;26849;-88
2023/07/12 15:54:26;;;;;;;9.73;6.63;;;16.10;99.90;;;;;;1977752;71;25972;-88
2023/07/12 16:00:03;;;;;;;10.53;5.40;;;16.10;99.90;;;;;;2029420;69;26950;-88
2023/07/12 16:02:53;;;;;;;12.77;7.60;;;16.10;99.90;;;;;;2002196;71;25270;-88
2023/07/12 16:05:43;;;;;;;11.30;6.40;;;16.20;99.90;;;;;;1980584;71;25623;-88
2023/07/12 16:11:21;;;;;;;9.33;6.60;;;16.20;99.90;;;;;;1896777;74;27510;-88
2023/07/12 16:14:17;;;;;;;10.20;6.53;;;16.30;99.90;;;;;;1849428;76;25242;-88
2023/07/12 16:17:10;;;;;;;9.53;6.20;;;16.20;99.90;;;;;;1849245;76;25225;-88
2023/07/12 16:20:00;;;;;;;9.93;6.10;;;16.20;99.90;;;;;;1849895;76;25282;-88
2023/07/12 16:22:49;;;;;;;9.90;5.70;;;16.30;99.90;;;;;;1857709;77;25273;-88
2023/07/12 16:25:38;;;;;;;6.67;4.50;;;16.30;99.90;;;;;;1851998;77;25286;-88
2023/07/12 16:34:33;;;;;;;9.17;5.77;;;16.10;99.90;;;;;;1948806;72;26919;-89
2023/07/12 16:37:22;;;;;;;10.10;5.33;;;16.20;99.90;;;;;;1927938;72;25713;-88
2023/07/12 16:40:14;;;;;;;11.10;6.23;;;16.10;99.90;;;;;;1941279;72;25735;-89
2023/07/12 16:43:05;;;;;;;12.27;6.57;;;16.10;99.90;;;;;;1909754;74;25264;-89
2023/07/12 16:45:55;;;;;;;8.43;6.10;;;16.10;99.90;;;;;;1904189;74;25269;-88
2023/07/12 17:54:46;;;;;;;9.03;4.90;;;15.90;99.90;;;;;;1951070;72;27556;-88
2023/07/12 17:57:37;;;;;;;9.17;5.40;;;15.90;99.90;;;;;;1923732;73;25693;-88
2023/07/12 18:00:27;;;;;;;12.00;5.37;;;15.80;99.90;;;;;;1926356;73;25241;-88
2023/07/12 18:03:17;;;;;;;10.80;4.63;;;15.80;99.90;;;;;;1918145;73;25777;-89
2023/07/12 18:06:07;;;;;;;9.17;5.13;;;15.70;99.90;;;;;;1917974;73;25339;-88
2023/07/12 18:08:56;;;;;;;8.87;5.20;;;15.60;99.90;;;;;;1918622;73;25223;-88
2023/07/12 18:11:47;;;;;;;9.37;5.00;;;15.70;99.90;;;;;;1920668;73;25319;-88
2023/07/12 18:14:36;;;;;;;5.57;4.87;;;15.60;99.90;;;;;;1925146;73;25282;-88
2023/07/12 18:17:26;;;;;;;7.83;5.17;;;15.60;99.90;;;;;;1922921;73;25315;-87
2023/07/12 18:20:15;;;;;;;8.30;5.00;;;15.60;99.90;;;;;;1927886;73;25270;-88
2023/07/12 18:23:06;;;;;;;10.43;5.33;;;15.60;99.90;;;;;;1929063;73;25253;-88
2023/07/12 18:25:55;;;;;;;8.40;5.13;;;15.60;99.90;;;;;;1933259;73;25221;-88
2023/07/12 18:28:46;;;;;;;5.83;5.23;;;15.60;99.90;;;;;;1932817;73;25286;-88
2023/07/12 18:44:40;;;;;;;7.03;5.40;;;15.70;99.90;;;;;;1843367;77;27667;-88
2023/07/12 18:50:25;;;;;;;6.80;5.60;;;15.70;99.90;;;;;;1952228;72;26997;-88
2023/07/12 18:53:16;;;;;;;11.27;5.83;;;15.70;99.90;;;;;;1929080;73;25312;-88
2023/07/12 18:56:05;;;;;;;6.30;5.30;;;15.70;99.90;;;;;;1929412;73;25209;-88
2023/07/12 18:58:55;;;;;;;8.57;6.17;;;15.70;99.90;;;;;;1930716;73;25221;-88
2023/07/12 19:01:45;;;;;;;9.40;5.63;;;15.70;99.90;;;;;;1917629;73;25252;-88
2023/07/12 19:04:33;;;;;;;8.40;6.00;;;15.70;99.90;;;;;;1931481;73;25616;-88
2023/07/12 19:10:09;;;;;;;3.50;3.20;;;15.60;99.90;;;;;;1927491;72;27490;-87
2023/07/12 19:12:59;;;;;;;9.50;3.57;;;15.50;99.90;;;;;;1910828;74;25630;-88
2023/07/12 19:18:41;;;;;;;6.23;4.17;;;15.50;99.90;;;;;;1946225;72;26977;-87
2023/07/12 19:24:23;;;;;;;7.93;3.43;;;15.30;99.90;;;;;;1942632;72;28296;-88
2023/07/12 19:30:04;;;;;;;6.63;3.93;;;15.20;99.90;;;;;;1939690;72;27084;-87
2023/07/12 19:32:52;;;;;;;2.87;1.90;;;15.20;99.90;;;;;;1931691;73;25301;-87
2023/07/12 19:35:42;;;;;;;1.77;1.67;;;15.20;99.90;;;;;;1930173;73;25260;-87
2023/07/12 19:38:32;;;;;;;2.83;2.10;;;15.20;99.90;;;;;;1936301;73;25209;-87
2023/07/12 19:44:07;;;;;;;1.60;1.50;;;15.20;99.90;;;;;;1942593;72;26903;-87
2023/07/12 19:47:00;;;;;;;2.10;1.67;;;15.20;99.90;;;;;;1935084;73;25253;-88
2023/07/12 19:49:50;;;;;;;3.07;1.70;;;15.10;99.90;;;;;;1930912;73;25312;-88
2023/07/12 19:55:25;;;;;;;7.83;5.40;;;15.10;99.90;;;;;;1920434;72;26903;-88
2023/07/12 19:58:16;;;;;;;21.10;11.30;;;15.20;99.90;;;;;;1892484;75;25352;-88
2023/07/12 20:03:58;;;;;;;43.27;20.37;;;15.20;99.90;;;;;;1951444;71;27467;-87
2023/07/12 20:06:51;;;;;;;34.00;17.27;;;15.30;99.90;;;;;;1940787;72;25588;-89
2023/07/12 20:09:38;;;;;;;36.30;15.27;;;15.30;99.90;;;;;;1947022;72;25689;-89
2023/07/12 20:15:23;;;;;;;37.43;18.07;;;15.20;99.90;;;;;;1949219;72;27069;-88
2023/07/12 20:20:55;;;;;;;24.83;12.53;;;15.30;99.90;;;;;;1906937;74;27172;-88
2023/07/12 20:27:34;;;;;;;22.37;12.37;;;15.30;99.90;;;;;;1844250;77;25272;-89
2023/07/12 20:43:50;;;;;;;1.50;1.40;;;15.20;99.90;;;;;;1825274;74;27717;-88
2023/07/12 20:49:38;;;;;;;1.70;1.60;;;15.20;99.90;;;;;;1949277;72;27145;-88
2023/07/12 20:55:09;;;;;;;1.67;1.57;;;15.20;99.90;;;;;;1936028;73;28216;-87
2023/07/12 20:57:59;;;;;;;1.97;1.80;;;15.20;99.90;;;;;;1917807;73;26060;-87
2023/07/12 21:00:48;;;;;;;2.53;2.33;;;15.30;99.90;;;;;;1911801;73;25190;-87
2023/07/12 21:06:23;;;;;;;2.73;2.50;;;15.40;99.90;;;;;;1931002;72;27121;-86
2023/07/12 21:09:13;;;;;;;4.40;2.47;;;15.40;99.90;;;;;;1920073;74;25833;-88
2023/07/12 21:12:01;;;;;;;3.53;2.80;;;15.50;99.90;;;;;;1908979;73;25806;-88
2023/07/12 21:14:50;;;;;;;4.83;3.07;;;15.50;99.90;;;;;;1906078;74;25204;-89
2023/07/12 21:17:38;;;;;;;5.70;2.97;;;15.50;99.90;;;;;;1915624;73;26014;-89
2023/07/12 21:20:27;;;;;;;3.63;3.03;;;15.50;99.90;;;;;;1902032;73;25344;-89
2023/07/12 21:23:17;;;;;;;6.53;3.23;;;15.50;99.90;;;;;;1913854;73;25292;-88
2023/07/12 21:26:06;;;;;;;6.07;3.40;;;15.50;99.90;;;;;;1908548;73;25260;-88
2023/07/12 21:28:55;;;;;;;5.03;3.37;;;15.50;99.90;;;;;;1930642;73;25198;-88
2023/07/12 21:34:25;;;;;;;7.50;4.10;;;15.50;99.90;;;;;;1929762;72;26896;-87
2023/07/12 21:37:14;;;;;;;9.07;4.37;;;15.50;99.90;;;;;;1909048;73;25715;-87
2023/07/12 21:40:04;;;;;;;12.80;4.43;;;15.50;99.90;;;;;;1919254;73;25253;-87
2023/07/12 21:45:33;;;;;;;11.93;4.57;;;15.50;99.90;;;;;;1930986;72;27131;-87
2023/07/12 21:48:22;;;;;;;8.20;5.00;;;15.50;99.90;;;;;;1893709;73;25281;-87
2023/07/12 21:51:11;;;;;;;14.80;5.30;;;15.40;99.90;;;;;;1908930;73;25225;-87
2023/07/12 21:54:04;;;;;;;13.63;5.30;;;15.40;99.90;;;;;;1886518;73;25217;-87
2023/07/12 21:56:53;;;;;;;7.33;4.63;;;15.40;99.90;;;;;;1870393;76;25276;-87
2023/07/12 21:59:44;;;;;;;10.63;5.27;;;15.40;99.90;;;;;;1841369;77;25238;-87
2023/07/12 22:02:33;;;;;;;13.33;5.47;;;15.40;99.90;;;;;;1904344;73;25226;-87
2023/07/12 22:05:22;;;;;;;14.37;6.60;;;15.30;99.90;;;;;;1876179;76;25267;-87
2023/07/12 22:08:12;;;;;;;16.87;6.60;;;15.30;99.90;;;;;;1812342;77;25262;-87
2023/07/12 22:11:07;;;;;;;13.77;6.20;;;15.30;99.90;;;;;;1848097;77;25240;-87
2023/07/12 22:13:56;;;;;;;14.77;5.90;;;15.20;99.90;;;;;;1866710;76;25322;-87
2023/07/12 22:16:44;;;;;;;12.30;6.20;;;15.20;99.90;;;;;;1832677;77;25748;-87
2023/07/12 22:22:26;;;;;;;14.77;6.87;;;15.20;99.90;;;;;;1940981;72;27455;-87
2023/07/12 22:25:16;;;;;;;20.63;6.40;;;15.20;99.90;;;;;;1924396;73;25291;-87
2023/07/12 22:30:44;;;;;;;11.20;6.93;;;15.00;99.90;;;;;;1946304;72;27056;-86
2023/07/12 22:33:33;;;;;;;12.10;5.87;;;15.00;99.90;;;;;;1929213;73;25816;-87
2023/07/12 22:36:21;;;;;;;14.63;6.73;;;15.00;99.90;;;;;;1916374;75;25214;-87
2023/07/12 22:39:11;;;;;;;14.03;5.93;;;15.00;99.90;;;;;;1916481;75;25217;-87
2023/07/12 22:41:59;;;;;;;10.97;6.50;;;14.90;99.90;;;;;;1923813;73;25325;-87
2023/07/12 22:44:47;;;;;;;16.93;6.53;;;14.90;99.90;;;;;;1914396;73;25209;-87
2023/07/12 22:47:36;;;;;;;13.80;6.53;;;14.90;99.90;;;;;;1919197;73;25227;-87
2023/07/12 22:50:25;;;;;;;15.07;6.20;;;14.80;99.90;;;;;;1916915;73;25252;-87
2023/07/12 22:53:15;;;;;;;11.83;6.90;;;14.80;99.90;;;;;;1915223;73;25166;-87
2023/07/12 22:56:06;;;;;;;17.37;7.20;;;14.80;99.90;;;;;;1911961;73;25222;-87
2023/07/12 22:58:55;;;;;;;13.40;6.60;;;14.80;99.90;;;;;;1902942;73;25154;-87
2023/07/12 23:01:44;;;;;;;14.87;6.97;;;14.70;99.90;;;;;;1904649;73;25663;-87
2023/07/12 23:04:34;;;;;;;9.00;5.40;;;14.80;99.90;;;;;;1920648;73;25234;-86
2023/07/12 23:10:02;;;;;;;12.87;5.50;;;14.70;99.90;;;;;;1932609;72;27042;-86
2023/07/12 23:15:32;;;;;;;14.47;5.50;;;14.70;99.90;;;;;;1938953;72;27507;-87
2023/07/12 23:18:21;;;;;;;13.37;5.73;;;14.70;99.90;;;;;;1877376;75;25326;-87
2023/07/12 23:21:10;;;;;;;13.33;5.20;;;14.70;99.90;;;;;;1856295;76;25193;-87
2023/07/12 23:23:58;;;;;;;13.17;5.07;;;14.70;99.90;;;;;;1865189;76;25685;-87
2023/07/12 23:26:47;;;;;;;15.30;5.43;;;14.70;99.90;;;;;;1840927;77;25296;-87
2023/07/12 23:29:36;;;;;;;11.47;5.20;;;14.70;99.90;;;;;;1838894;76;25642;-87
2023/07/12 23:32:25;;;;;;;12.10;4.17;;;14.70;99.90;;;;;;1889856;74;25161;-87
2023/07/12 23:35:14;;;;;;;11.63;4.30;;;14.70;99.90;;;;;;1872728;76;25315;-86
2023/07/12 23:38:04;;;;;;;11.40;4.00;;;14.60;99.90;;;;;;1837949;77;25186;-87
2023/07/12 23:40:53;;;;;;;20.47;4.30;;;14.60;99.90;;;;;;1862979;76;25706;-87
2023/07/12 23:43:41;;;;;;;7.07;3.63;;;14.60;99.90;;;;;;1883609;75;26424;-88
2023/07/12 23:46:31;;;;;;;13.27;3.73;;;14.60;99.90;;;;;;1844600;76;25348;-88
2023/07/12 23:52:01;;;;;;;17.00;3.80;;;14.50;99.90;;;;;;1924969;72;27137;-86
2023/07/12 23:57:38;;;;;;;19.03;3.63;;;14.50;99.90;;;;;;1955848;72;27012;-87
